Time,TemperatureF,DewpointF,PressureIn,WindDirection,WindDirectionDegrees,WindSpeedMPH,WindSpeedGustMPH,Humidity,HourlyPrecipIn,Conditions,Clouds,dailyrainin,SoftwareType,DateUTC
2015-04-27 00:01:00,45.0,33.0,-100.00,West,265,0.0,1.0,60,-99.99,,,-99.99,,2015-04-27 04:01:00,
2015-04-27 00:11:00,46.0,32.0,-100.00,West,260,0.0,0.0,59,-99.99,,,-99.99,,2015-04-27 04:11:00,
2015-04-27 00:21:00,45.0,32.0,-100.00,WSW,250,0.0,0.0,59,-99.99,,,-99.99,,2015-04-27 04:21:00,
2015-04-27 00:31:00,45.0,32.0,-100.00,WSW,250,0.0,0.0,60,-99.99,,,-99.99,,2015-04-27 04:31:00,
2015-04-27 00:41:00,45.0,32.0,-100.00,WSW,250,0.0,0.0,60,-99.99,,,-99.99,,2015-04-27 04:41:00,
2015-04-27 00:51:00,44.0,31.0,-100.00,WSW,245,0.0,0.0,61,-99.99,,,-99.99,,2015-04-27 04:51:00,
2015-04-27 01:01:00,44.0,31.0,-100.00,WSW,245,0.0,0.0,61,-99.99,,,-99.99,,2015-04-27 05:01:00,
2015-04-27 01:11:00,43.0,31.0,-100.00,SW,235,0.0,0.0,62,-99.99,,,-99.99,,2015-04-27 05:11:00,
2015-04-27 01:21:00,43.0,31.0,-100.00,SSW,205,0.0,0.0,64,-99.99,,,-99.99,,2015-04-27 05:21:00,
2015-04-27 01:32:00,42.0,32.0,-100.00,SW,220,0.0,0.0,67,-99.99,,,-99.99,,2015-04-27 05:32:00,
2015-04-27 01:42:00,43.0,31.0,-100.00,WSW,240,0.0,0.0,62,-99.99,,,-99.99,,2015-04-27 05:42:00,
2015-04-27 01:51:00,44.0,31.0,-100.00,WSW,240,0.0,0.0,60,-99.99,,,-99.99,,2015-04-27 05:51:00,
2015-04-27 02:02:00,43.0,31.0,-100.00,WSW,240,0.0,0.0,61,-99.99,,,-99.99,,2015-04-27 06:02:00,
2015-04-27 02:11:00,43.0,31.0,-100.00,WSW,240,0.0,0.0,60,-99.99,,,-99.99,,2015-04-27 06:11:00,
2015-04-27 02:21:00,42.0,31.0,-100.00,SW,230,0.0,0.0,63,-99.99,,,-99.99,,2015-04-27 06:21:00,
2015-04-27 02:31:00,42.0,31.0,-100.00,SW,230,0.0,0.0,63,-99.99,,,-99.99,,2015-04-27 06:31:00,
2015-04-27 02:42:00,42.0,31.0,-100.00,SW,230,0.0,0.0,63,-99.99,,,-99.99,,2015-04-27 06:42:00,
2015-04-27 02:52:00,42.0,31.0,-100.00,SW,230,0.0,0.0,63,-99.99,,,-99.99,,2015-04-27 06:52:00,
2015-04-27 03:01:00,42.0,31.0,-100.00,SW,230,0.0,0.0,63,-99.99,,,-99.99,,2015-04-27 07:01:00,
2015-04-27 03:31:00,38.0,32.0,-100.00,South,170,0.0,0.0,76,-99.99,,,-99.99,,2015-04-27 07:31:00,
2015-04-27 03:51:00,38.0,31.0,-100.00,SSE,160,0.0,0.0,75,-99.99,,,-99.99,,2015-04-27 07:51:00,
2015-04-27 04:02:00,39.0,31.0,-100.00,SSE,165,0.0,0.0,73,-99.99,,,-99.99,,2015-04-27 08:02:00,
2015-04-27 04:11:00,39.0,32.0,-100.00,SSW,210,0.0,0.0,74,-99.99,,,-99.99,,2015-04-27 08:11:00,
2015-04-27 04:21:00,39.0,31.0,-100.00,SW,230,0.0,0.0,74,-99.99,,,-99.99,,2015-04-27 08:21:00,
2015-04-27 04:31:00,39.0,31.0,-100.00,SW,215,0.0,0.0,73,-99.99,,,-99.99,,2015-04-27 08:31:00,
2015-04-27 04:42:00,38.0,31.0,-100.00,SW,215,0.0,0.0,75,-99.99,,,-99.99,,2015-04-27 08:42:00,
2015-04-27 04:51:00,39.0,31.0,-100.00,SSW,195,0.0,0.0,73,-99.99,,,-99.99,,2015-04-27 08:51:00,
2015-04-27 05:01:00,38.0,32.0,-100.00,SSW,195,0.0,0.0,78,-99.99,,,-99.99,,2015-04-27 09:01:00,
2015-04-27 05:11:00,37.0,32.0,-100.00,SW,220,0.0,0.0,84,-99.99,,,-99.99,,2015-04-27 09:11:00,
2015-04-27 05:21:00,37.0,32.0,-100.00,SSW,200,0.0,0.0,84,-99.99,,,-99.99,,2015-04-27 09:21:00,
2015-04-27 05:31:00,37.0,31.0,-100.00,SSW,210,0.0,0.0,80,-99.99,,,-99.99,,2015-04-27 09:31:00,
2015-04-27 05:42:00,37.0,32.0,-100.00,SW,225,0.0,0.0,79,-99.99,,,-99.99,,2015-04-27 09:42:00,
2015-04-27 05:51:00,38.0,31.0,-100.00,West,270,0.0,0.0,77,-99.99,,,-99.99,,2015-04-27 09:51:00,
2015-04-27 06:01:00,39.0,31.0,-100.00,WSW,240,0.0,0.0,74,-99.99,,,-99.99,,2015-04-27 10:01:00,
2015-04-27 06:11:00,38.0,31.0,-100.00,SW,230,0.0,0.0,75,-99.99,,,-99.99,,2015-04-27 10:11:00,
2015-04-27 06:21:00,38.0,31.0,-100.00,SW,230,0.0,0.0,77,-99.99,,,-99.99,,2015-04-27 10:21:00,
2015-04-27 06:31:00,38.0,31.0,-100.00,SW,215,0.0,0.0,76,-99.99,,,-99.99,,2015-04-27 10:31:00,
2015-04-27 06:42:00,37.0,31.0,-100.00,South,170,0.0,0.0,81,-99.99,,,-99.99,,2015-04-27 10:42:00,
2015-04-27 06:52:00,36.0,31.0,-100.00,South,170,0.0,0.0,82,-99.99,,,-99.99,,2015-04-27 10:52:00,
2015-04-27 07:02:00,36.0,32.0,-100.00,South,170,0.0,0.0,83,-99.99,,,-99.99,,2015-04-27 11:02:00,
2015-04-27 07:11:00,35.0,34.0,-100.00,SSE,155,0.0,0.0,94,-99.99,,,-99.99,,2015-04-27 11:11:00,
2015-04-27 07:52:00,36.0,35.0,-100.00,SE,140,0.0,0.0,96,-99.99,,,-99.99,,2015-04-27 11:52:00,
2015-04-27 08:01:00,37.0,33.0,-100.00,SE,130,0.0,0.0,84,-99.99,,,-99.99,,2015-04-27 12:01:00,
2015-04-27 08:11:00,40.0,33.0,-100.00,SSE,165,0.0,0.0,78,-99.99,,,-99.99,,2015-04-27 12:11:00,
2015-04-27 08:21:00,41.0,36.0,-100.00,SE,140,0.0,0.0,84,-99.99,,,-99.99,,2015-04-27 12:21:00,
2015-04-27 08:32:00,42.0,35.0,-100.00,SSE,155,0.0,0.0,75,-99.99,,,-99.99,,2015-04-27 12:32:00,
2015-04-27 08:42:00,44.0,31.0,-100.00,North,350,0.0,0.0,61,-99.99,,,-99.99,,2015-04-27 12:42:00,
2015-04-27 08:52:00,45.0,33.0,-100.00,SSE,155,0.0,0.0,63,-99.99,,,-99.99,,2015-04-27 12:52:00,
2015-04-27 09:02:00,45.0,34.0,-100.00,SE,130,0.0,0.0,63,-99.99,,,-99.99,,2015-04-27 13:02:00,
2015-04-27 09:21:00,47.0,31.0,-100.00,North,10,0.0,0.0,54,-99.99,,,-99.99,,2015-04-27 13:21:00,
2015-04-27 09:41:00,48.0,32.0,-100.00,East,100,0.0,0.0,53,-99.99,,,-99.99,,2015-04-27 13:41:00,
2015-04-27 10:01:00,49.0,31.0,-100.00,ENE,75,2.0,6.0,49,-99.99,,,-99.99,,2015-04-27 14:01:00,
2015-04-27 10:11:00,49.0,33.0,-100.00,ESE,115,0.0,6.0,52,-99.99,,,-99.99,,2015-04-27 14:11:00,
2015-04-27 10:31:00,50.0,31.0,-100.00,ESE,115,1.0,9.0,48,-99.99,,,-99.99,,2015-04-27 14:31:00,
2015-04-27 11:11:00,52.0,32.0,-100.00,South,175,2.0,10.0,46,-99.99,,,-99.99,,2015-04-27 15:11:00,
2015-04-27 11:31:00,53.0,34.0,-100.00,South,180,1.0,11.0,48,-99.99,,,-99.99,,2015-04-27 15:31:00,
2015-04-27 12:01:00,54.0,33.0,-100.00,SW,230,7.0,14.0,45,-99.99,,,-99.99,,2015-04-27 16:01:00,
2015-04-27 12:42:00,55.0,38.0,-100.00,WSW,250,9.0,12.0,52,-99.99,,,-99.99,,2015-04-27 16:42:00,
2015-04-27 13:02:00,55.0,37.0,-100.00,SW,215,11.0,16.0,49,-99.99,,,-99.99,,2015-04-27 17:02:00,
2015-04-27 13:55:00,56.0,37.0,-100.00,SSW,205,7.0,12.0,49,-99.99,,,-99.99,,2015-04-27 17:55:00,
2015-04-27 14:22:00,57.0,36.0,-100.00,SW,225,9.0,14.0,45,-99.99,,,-99.99,,2015-04-27 18:22:00,
2015-04-27 14:42:00,56.0,35.0,-100.00,WSW,240,5.0,14.0,45,-99.99,,,-99.99,,2015-04-27 18:42:00,
2015-04-27 14:52:00,56.0,35.0,-100.00,WSW,240,7.0,11.0,45,-99.99,,,-99.99,,2015-04-27 18:52:00,
2015-04-27 15:02:00,56.0,36.0,-100.00,SSW,195,9.0,12.0,46,-99.99,,,-99.99,,2015-04-27 19:02:00,
2015-04-27 15:12:00,57.0,36.0,-100.00,SW,230,3.0,14.0,45,-99.99,,,-99.99,,2015-04-27 19:12:00,
2015-04-27 15:32:00,57.0,36.0,-100.00,SW,235,6.0,15.0,45,-99.99,,,-99.99,,2015-04-27 19:32:00,
2015-04-27 15:42:00,57.0,36.0,-100.00,SW,235,9.0,16.0,44,-99.99,,,-99.99,,2015-04-27 19:42:00,
2015-04-27 15:51:00,57.0,37.0,-100.00,SW,215,7.0,16.0,48,-99.99,,,-99.99,,2015-04-27 19:51:00,
2015-04-27 16:51:00,56.0,37.0,-100.00,WSW,250,7.0,14.0,49,-99.99,,,-99.99,,2015-04-27 20:51:00,
2015-04-27 17:01:00,56.0,37.0,-100.00,WSW,250,8.0,16.0,49,-99.99,,,-99.99,,2015-04-27 21:01:00,